sensor_id;sensor_type;location;lat;lon;timestamp;P1;durP1;ratioP1;P2;durP2;ratioP2
43801;SDS011;29429;51.074;13.764;2023-05-13T00:00:23;7.47;;;6.53;;
43801;SDS011;29429;51.074;13.764;2023-05-13T00:02:51;8.60;;;6.38;;
43801;SDS011;29429;51.074;13.764;2023-05-13T00:05:18;8.38;;;6.60;;
43801;SDS011;29429;51.074;13.764;2023-05-13T00:07:46;8.13;;;6.18;;
43801;SDS011;29429;51.074;13.764;2023-05-13T00:10:13;7.50;;;6.28;;
43801;SDS011;29429;51.074;13.764;2023-05-13T00:12:41;6.88;;;6.10;;
43801;SDS011;29429;51.074;13.764;2023-05-13T00:15:09;10.18;;;6.97;;
43801;SDS011;29429;51.074;13.764;2023-05-13T00:17:37;8.98;;;6.60;;
43801;SDS011;29429;51.074;13.764;2023-05-13T00:20:04;8.63;;;6.30;;
43801;SDS011;29429;51.074;13.764;2023-05-13T00:22:33;9.60;;;6.65;;
43801;SDS011;29429;51.074;13.764;2023-05-13T00:25:00;10.55;;;6.63;;
43801;SDS011;29429;51.074;13.764;2023-05-13T00:27:28;7.82;;;6.38;;
43801;SDS011;29429;51.074;13.764;2023-05-13T00:29:57;9.00;;;7.13;;
43801;SDS011;29429;51.074;13.764;2023-05-13T00:32:25;8.18;;;6.65;;
43801;SDS011;29429;51.074;13.764;2023-05-13T00:34:52;8.23;;;6.40;;
43801;SDS011;29429;51.074;13.764;2023-05-13T00:37:19;10.15;;;6.95;;
43801;SDS011;29429;51.074;13.764;2023-05-13T00:39:46;11.68;;;7.43;;
43801;SDS011;29429;51.074;13.764;2023-05-13T00:42:13;7.40;;;6.70;;
43801;SDS011;29429;51.074;13.764;2023-05-13T00:44:40;8.82;;;7.03;;
43801;SDS011;29429;51.074;13.764;2023-05-13T00:47:09;8.68;;;6.28;;
43801;SDS011;29429;51.074;13.764;2023-05-13T00:49:37;11.35;;;7.80;;
43801;SDS011;29429;51.074;13.764;2023-05-13T00:52:04;11.68;;;6.53;;
43801;SDS011;29429;51.074;13.764;2023-05-13T00:54:32;10.70;;;7.13;;
43801;SDS011;29429;51.074;13.764;2023-05-13T00:56:59;9.23;;;6.93;;
43801;SDS011;29429;51.074;13.764;2023-05-13T00:59:27;10.45;;;7.40;;
43801;SDS011;29429;51.074;13.764;2023-05-13T01:12:40;8.75;;;7.07;;
43801;SDS011;29429;51.074;13.764;2023-05-13T01:15:12;9.65;;;7.03;;
43801;SDS011;29429;51.074;13.764;2023-05-13T01:17:48;9.02;;;6.60;;
43801;SDS011;29429;51.074;13.764;2023-05-13T01:20:21;9.80;;;6.20;;
43801;SDS011;29429;51.074;13.764;2023-05-13T01:22:50;9.50;;;6.82;;
43801;SDS011;29429;51.074;13.764;2023-05-13T01:25:17;9.25;;;6.82;;
43801;SDS011;29429;51.074;13.764;2023-05-13T01:27:44;10.10;;;7.32;;
43801;SDS011;29429;51.074;13.764;2023-05-13T01:30:15;8.13;;;6.70;;
43801;SDS011;29429;51.074;13.764;2023-05-13T01:32:42;8.35;;;6.05;;
43801;SDS011;29429;51.074;13.764;2023-05-13T01:35:13;6.95;;;6.25;;
43801;SDS011;29429;51.074;13.764;2023-05-13T01:37:43;7.80;;;6.30;;
43801;SDS011;29429;51.074;13.764;2023-05-13T01:40:11;8.88;;;6.60;;
43801;SDS011;29429;51.074;13.764;2023-05-13T01:43:00;8.90;;;6.78;;
43801;SDS011;29429;51.074;13.764;2023-05-13T01:45:28;7.63;;;6.55;;
43801;SDS011;29429;51.074;13.764;2023-05-13T01:47:56;9.32;;;6.28;;
43801;SDS011;29429;51.074;13.764;2023-05-13T01:50:25;10.70;;;7.10;;
43801;SDS011;29429;51.074;13.764;2023-05-13T01:52:52;8.90;;;6.72;;
43801;SDS011;29429;51.074;13.764;2023-05-13T01:55:20;7.68;;;6.53;;
43801;SDS011;29429;51.074;13.764;2023-05-13T01:57:48;12.00;;;7.40;;
43801;SDS011;29429;51.074;13.764;2023-05-13T02:00:15;10.13;;;6.80;;
43801;SDS011;29429;51.074;13.764;2023-05-13T02:02:42;8.90;;;7.30;;
43801;SDS011;29429;51.074;13.764;2023-05-13T02:05:10;9.43;;;7.13;;
43801;SDS011;29429;51.074;13.764;2023-05-13T02:07:37;8.35;;;6.22;;
43801;SDS011;29429;51.074;13.764;2023-05-13T02:10:04;7.80;;;6.38;;
43801;SDS011;29429;51.074;13.764;2023-05-13T02:12:31;10.23;;;6.47;;
43801;SDS011;29429;51.074;13.764;2023-05-13T02:14:58;7.43;;;6.00;;
43801;SDS011;29429;51.074;13.764;2023-05-13T02:17:25;10.23;;;6.60;;
43801;SDS011;29429;51.074;13.764;2023-05-13T02:19:52;8.93;;;6.43;;
43801;SDS011;29429;51.074;13.764;2023-05-13T02:22:19;10.63;;;7.28;;
43801;SDS011;29429;51.074;13.764;2023-05-13T02:24:46;6.80;;;5.97;;
43801;SDS011;29429;51.074;13.764;2023-05-13T02:27:13;8.98;;;6.60;;
43801;SDS011;29429;51.074;13.764;2023-05-13T02:29:41;8.13;;;6.32;;
43801;SDS011;29429;51.074;13.764;2023-05-13T02:32:09;7.43;;;5.53;;
43801;SDS011;29429;51.074;13.764;2023-05-13T02:34:36;7.97;;;6.03;;
43801;SDS011;29429;51.074;13.764;2023-05-13T02:37:04;8.23;;;6.55;;
43801;SDS011;29429;51.074;13.764;2023-05-13T02:39:35;8.43;;;5.80;;
43801;SDS011;29429;51.074;13.764;2023-05-13T02:42:02;6.88;;;6.03;;
43801;SDS011;29429;51.074;13.764;2023-05-13T02:44:31;6.93;;;5.32;;
43801;SDS011;29429;51.074;13.764;2023-05-13T02:46:59;8.40;;;5.78;;
43801;SDS011;29429;51.074;13.764;2023-05-13T02:49:26;10.20;;;5.82;;
43801;SDS011;29429;51.074;13.764;2023-05-13T02:51:53;7.30;;;5.75;;
43801;SDS011;29429;51.074;13.764;2023-05-13T02:54:27;7.63;;;5.05;;
43801;SDS011;29429;51.074;13.764;2023-05-13T02:56:54;7.78;;;5.22;;
43801;SDS011;29429;51.074;13.764;2023-05-13T02:59:21;7.22;;;5.72;;
43801;SDS011;29429;51.074;13.764;2023-05-13T03:01:48;6.65;;;5.60;;
43801;SDS011;29429;51.074;13.764;2023-05-13T03:04:15;6.13;;;4.63;;
43801;SDS011;29429;51.074;13.764;2023-05-13T03:06:42;8.23;;;5.72;;
43801;SDS011;29429;51.074;13.764;2023-05-13T03:09:09;8.13;;;5.00;;
43801;SDS011;29429;51.074;13.764;2023-05-13T03:11:36;6.85;;;5.13;;
43801;SDS011;29429;51.074;13.764;2023-05-13T03:14:04;5.63;;;4.80;;
43801;SDS011;29429;51.074;13.764;2023-05-13T03:16:31;5.85;;;4.95;;
43801;SDS011;29429;51.074;13.764;2023-05-13T03:18:58;8.55;;;5.63;;
43801;SDS011;29429;51.074;13.764;2023-05-13T03:21:25;6.85;;;5.43;;
43801;SDS011;29429;51.074;13.764;2023-05-13T03:23:52;9.15;;;5.97;;
43801;SDS011;29429;51.074;13.764;2023-05-13T03:26:19;6.85;;;5.32;;
43801;SDS011;29429;51.074;13.764;2023-05-13T03:28:47;6.60;;;5.53;;
43801;SDS011;29429;51.074;13.764;2023-05-13T03:31:18;7.72;;;5.53;;
43801;SDS011;29429;51.074;13.764;2023-05-13T03:33:46;6.65;;;5.43;;
43801;SDS011;29429;51.074;13.764;2023-05-13T03:36:13;6.95;;;5.13;;
43801;SDS011;29429;51.074;13.764;2023-05-13T03:38:40;7.32;;;4.63;;
43801;SDS011;29429;51.074;13.764;2023-05-13T03:41:07;7.45;;;5.35;;
43801;SDS011;29429;51.074;13.764;2023-05-13T03:43:34;10.60;;;5.68;;
43801;SDS011;29429;51.074;13.764;2023-05-13T03:46:06;7.32;;;5.90;;
43801;SDS011;29429;51.074;13.764;2023-05-13T03:48:33;8.10;;;5.47;;
43801;SDS011;29429;51.074;13.764;2023-05-13T03:51:01;7.38;;;5.15;;
43801;SDS011;29429;51.074;13.764;2023-05-13T03:53:28;7.90;;;5.70;;
43801;SDS011;29429;51.074;13.764;2023-05-13T03:55:56;7.68;;;5.50;;
43801;SDS011;29429;51.074;13.764;2023-05-13T03:58:25;8.23;;;5.18;;
43801;SDS011;29429;51.074;13.764;2023-05-13T04:00:52;7.68;;;5.78;;
43801;SDS011;29429;51.074;13.764;2023-05-13T04:03:19;8.90;;;5.60;;
43801;SDS011;29429;51.074;13.764;2023-05-13T04:05:47;6.15;;;5.30;;
43801;SDS011;29429;51.074;13.764;2023-05-13T04:08:16;8.32;;;5.72;;
43801;SDS011;29429;51.074;13.764;2023-05-13T04:10:43;7.57;;;5.38;;
43801;SDS011;29429;51.074;13.764;2023-05-13T04:13:10;6.68;;;5.20;;
43801;SDS011;29429;51.074;13.764;2023-05-13T04:15:38;8.00;;;5.30;;
43801;SDS011;29429;51.074;13.764;2023-05-13T04:18:05;6.85;;;5.38;;
43801;SDS011;29429;51.074;13.764;2023-05-13T04:20:33;8.90;;;5.70;;
43801;SDS011;29429;51.074;13.764;2023-05-13T04:23:00;7.10;;;5.57;;
43801;SDS011;29429;51.074;13.764;2023-05-13T04:25:27;6.13;;;5.30;;
43801;SDS011;29429;51.074;13.764;2023-05-13T04:27:55;6.88;;;5.18;;
43801;SDS011;29429;51.074;13.764;2023-05-13T04:30:27;6.85;;;5.05;;
43801;SDS011;29429;51.074;13.764;2023-05-13T04:32:54;8.30;;;5.78;;
43801;SDS011;29429;51.074;13.764;2023-05-13T04:35:22;6.78;;;5.70;;
43801;SDS011;29429;51.074;13.764;2023-05-13T04:37:53;7.13;;;5.32;;
43801;SDS011;29429;51.074;13.764;2023-05-13T04:40:21;6.82;;;5.38;;
43801;SDS011;29429;51.074;13.764;2023-05-13T04:42:49;7.50;;;5.60;;
43801;SDS011;29429;51.074;13.764;2023-05-13T04:45:25;7.97;;;5.65;;
43801;SDS011;29429;51.074;13.764;2023-05-13T04:47:54;7.18;;;5.07;;
43801;SDS011;29429;51.074;13.764;2023-05-13T04:50:23;6.43;;;4.72;;
43801;SDS011;29429;51.074;13.764;2023-05-13T04:52:51;6.35;;;5.03;;
43801;SDS011;29429;51.074;13.764;2023-05-13T04:55:21;6.60;;;4.80;;
43801;SDS011;29429;51.074;13.764;2023-05-13T04:57:53;6.05;;;5.05;;
43801;SDS011;29429;51.074;13.764;2023-05-13T05:00:19;5.72;;;5.13;;
43801;SDS011;29429;51.074;13.764;2023-05-13T05:02:49;8.50;;;5.43;;
43801;SDS011;29429;51.074;13.764;2023-05-13T05:05:16;7.50;;;5.32;;
43801;SDS011;29429;51.074;13.764;2023-05-13T05:07:44;5.18;;;4.65;;
43801;SDS011;29429;51.074;13.764;2023-05-13T05:10:11;7.28;;;5.22;;
43801;SDS011;29429;51.074;13.764;2023-05-13T05:12:42;6.60;;;4.30;;
43801;SDS011;29429;51.074;13.764;2023-05-13T05:15:11;8.75;;;5.20;;
43801;SDS011;29429;51.074;13.764;2023-05-13T05:17:43;6.72;;;5.40;;
43801;SDS011;29429;51.074;13.764;2023-05-13T05:20:11;7.80;;;5.30;;
43801;SDS011;29429;51.074;13.764;2023-05-13T05:22:39;8.02;;;5.63;;
43801;SDS011;29429;51.074;13.764;2023-05-13T05:25:09;6.70;;;4.68;;
43801;SDS011;29429;51.074;13.764;2023-05-13T05:27:36;6.47;;;5.32;;
43801;SDS011;29429;51.074;13.764;2023-05-13T05:30:04;7.53;;;5.10;;
43801;SDS011;29429;51.074;13.764;2023-05-13T05:32:33;5.65;;;4.75;;
43801;SDS011;29429;51.074;13.764;2023-05-13T05:35:02;5.43;;;4.78;;
43801;SDS011;29429;51.074;13.764;2023-05-13T05:37:31;6.07;;;4.35;;
43801;SDS011;29429;51.074;13.764;2023-05-13T05:39:58;5.10;;;4.45;;
43801;SDS011;29429;51.074;13.764;2023-05-13T05:42:26;7.75;;;5.15;;
43801;SDS011;29429;51.074;13.764;2023-05-13T05:44:52;7.03;;;4.70;;
43801;SDS011;29429;51.074;13.764;2023-05-13T05:47:19;4.60;;;3.95;;
43801;SDS011;29429;51.074;13.764;2023-05-13T05:49:46;7.75;;;5.07;;
43801;SDS011;29429;51.074;13.764;2023-05-13T05:52:14;5.80;;;4.28;;
43801;SDS011;29429;51.074;13.764;2023-05-13T05:54:41;5.60;;;4.60;;
43801;SDS011;29429;51.074;13.764;2023-05-13T05:57:08;7.40;;;4.68;;
43801;SDS011;29429;51.074;13.764;2023-05-13T05:59:35;5.15;;;4.30;;
43801;SDS011;29429;51.074;13.764;2023-05-13T06:02:02;5.25;;;4.32;;
43801;SDS011;29429;51.074;13.764;2023-05-13T06:04:31;6.13;;;4.60;;
43801;SDS011;29429;51.074;13.764;2023-05-13T06:06:58;4.38;;;3.85;;
43801;SDS011;29429;51.074;13.764;2023-05-13T06:09:26;5.93;;;4.00;;
43801;SDS011;29429;51.074;13.764;2023-05-13T06:11:54;6.47;;;4.43;;
43801;SDS011;29429;51.074;13.764;2023-05-13T06:14:22;5.15;;;4.40;;
43801;SDS011;29429;51.074;13.764;2023-05-13T06:16:51;4.53;;;3.88;;
43801;SDS011;29429;51.074;13.764;2023-05-13T06:19:21;4.75;;;3.65;;
43801;SDS011;29429;51.074;13.764;2023-05-13T06:21:48;5.43;;;4.30;;
43801;SDS011;29429;51.074;13.764;2023-05-13T06:24:15;6.78;;;4.03;;
43801;SDS011;29429;51.074;13.764;2023-05-13T06:26:43;5.00;;;3.60;;
43801;SDS011;29429;51.074;13.764;2023-05-13T06:29:12;4.25;;;3.70;;
43801;SDS011;29429;51.074;13.764;2023-05-13T06:31:40;3.90;;;3.22;;
43801;SDS011;29429;51.074;13.764;2023-05-13T06:34:10;4.82;;;3.38;;
43801;SDS011;29429;51.074;13.764;2023-05-13T06:36:42;4.50;;;3.75;;
43801;SDS011;29429;51.074;13.764;2023-05-13T06:39:10;5.30;;;4.35;;
43801;SDS011;29429;51.074;13.764;2023-05-13T06:41:41;5.13;;;4.20;;
43801;SDS011;29429;51.074;13.764;2023-05-13T06:44:12;4.55;;;3.58;;
43801;SDS011;29429;51.074;13.764;2023-05-13T06:46:43;5.13;;;3.75;;
43801;SDS011;29429;51.074;13.764;2023-05-13T06:49:11;5.43;;;3.80;;
43801;SDS011;29429;51.074;13.764;2023-05-13T06:51:38;5.80;;;3.75;;
43801;SDS011;29429;51.074;13.764;2023-05-13T06:54:05;5.30;;;3.35;;
43801;SDS011;29429;51.074;13.764;2023-05-13T06:56:32;3.92;;;3.22;;
43801;SDS011;29429;51.074;13.764;2023-05-13T06:58:59;3.65;;;3.22;;
43801;SDS011;29429;51.074;13.764;2023-05-13T07:01:27;5.05;;;3.08;;
43801;SDS011;29429;51.074;13.764;2023-05-13T07:03:54;3.90;;;3.08;;
43801;SDS011;29429;51.074;13.764;2023-05-13T07:06:21;4.85;;;3.15;;
43801;SDS011;29429;51.074;13.764;2023-05-13T07:08:48;4.85;;;3.08;;
43801;SDS011;29429;51.074;13.764;2023-05-13T07:11:15;4.00;;;2.65;;
43801;SDS011;29429;51.074;13.764;2023-05-13T07:13:42;4.85;;;2.88;;
43801;SDS011;29429;51.074;13.764;2023-05-13T07:16:09;3.53;;;2.78;;
43801;SDS011;29429;51.074;13.764;2023-05-13T07:18:36;3.78;;;2.70;;
43801;SDS011;29429;51.074;13.764;2023-05-13T07:21:03;3.40;;;2.38;;
43801;SDS011;29429;51.074;13.764;2023-05-13T07:23:31;3.88;;;2.50;;
43801;SDS011;29429;51.074;13.764;2023-05-13T07:25:59;3.30;;;2.65;;
43801;SDS011;29429;51.074;13.764;2023-05-13T07:28:26;3.90;;;2.80;;
43801;SDS011;29429;51.074;13.764;2023-05-13T07:30:53;2.85;;;2.45;;
43801;SDS011;29429;51.074;13.764;2023-05-13T07:33:21;4.30;;;2.72;;
43801;SDS011;29429;51.074;13.764;2023-05-13T07:35:48;3.05;;;2.35;;
43801;SDS011;29429;51.074;13.764;2023-05-13T07:38:16;3.95;;;2.35;;
43801;SDS011;29429;51.074;13.764;2023-05-13T07:40:43;2.13;;;1.92;;
43801;SDS011;29429;51.074;13.764;2023-05-13T07:43:11;2.83;;;2.00;;
43801;SDS011;29429;51.074;13.764;2023-05-13T07:45:39;3.10;;;2.08;;
43801;SDS011;29429;51.074;13.764;2023-05-13T07:48:07;3.33;;;2.38;;
43801;SDS011;29429;51.074;13.764;2023-05-13T07:50:35;4.38;;;2.38;;
43801;SDS011;29429;51.074;13.764;2023-05-13T07:53:03;2.53;;;2.08;;
43801;SDS011;29429;51.074;13.764;2023-05-13T07:55:30;2.35;;;1.80;;
43801;SDS011;29429;51.074;13.764;2023-05-13T07:57:57;2.70;;;2.20;;
43801;SDS011;29429;51.074;13.764;2023-05-13T08:00:24;4.22;;;2.33;;
43801;SDS011;29429;51.074;13.764;2023-05-13T08:02:51;3.67;;;2.08;;
43801;SDS011;29429;51.074;13.764;2023-05-13T08:05:18;3.03;;;2.30;;
43801;SDS011;29429;51.074;13.764;2023-05-13T08:07:46;3.85;;;2.17;;
43801;SDS011;29429;51.074;13.764;2023-05-13T08:10:13;2.25;;;1.98;;
43801;SDS011;29429;51.074;13.764;2023-05-13T08:12:40;2.35;;;1.67;;
43801;SDS011;29429;51.074;13.764;2023-05-13T08:15:07;3.13;;;2.05;;
43801;SDS011;29429;51.074;13.764;2023-05-13T08:17:37;3.40;;;1.95;;
43801;SDS011;29429;51.074;13.764;2023-05-13T08:20:04;3.10;;;2.28;;
43801;SDS011;29429;51.074;13.764;2023-05-13T08:22:32;8.38;;;2.20;;
43801;SDS011;29429;51.074;13.764;2023-05-13T08:24:59;4.00;;;2.40;;
43801;SDS011;29429;51.074;13.764;2023-05-13T08:27:26;3.22;;;2.20;;
43801;SDS011;29429;51.074;13.764;2023-05-13T08:29:53;3.90;;;2.30;;
43801;SDS011;29429;51.074;13.764;2023-05-13T08:32:20;2.67;;;2.28;;
43801;SDS011;29429;51.074;13.764;2023-05-13T08:34:49;3.28;;;2.17;;
43801;SDS011;29429;51.074;13.764;2023-05-13T08:37:16;3.42;;;2.28;;
43801;SDS011;29429;51.074;13.764;2023-05-13T08:39:43;4.10;;;2.40;;
43801;SDS011;29429;51.074;13.764;2023-05-13T08:42:11;2.97;;;2.30;;
43801;SDS011;29429;51.074;13.764;2023-05-13T08:44:44;4.57;;;2.83;;
43801;SDS011;29429;51.074;13.764;2023-05-13T08:50:02;4.13;;;2.20;;
43801;SDS011;29429;51.074;13.764;2023-05-13T08:52:30;4.18;;;2.33;;
43801;SDS011;29429;51.074;13.764;2023-05-13T08:54:58;3.20;;;2.45;;
43801;SDS011;29429;51.074;13.764;2023-05-13T08:57:27;2.85;;;2.33;;
43801;SDS011;29429;51.074;13.764;2023-05-13T08:59:54;3.50;;;2.20;;
43801;SDS011;29429;51.074;13.764;2023-05-13T09:02:21;3.22;;;1.85;;
43801;SDS011;29429;51.074;13.764;2023-05-13T09:04:49;3.17;;;2.28;;
43801;SDS011;29429;51.074;13.764;2023-05-13T09:07:20;3.17;;;2.30;;
43801;SDS011;29429;51.074;13.764;2023-05-13T09:09:48;4.38;;;2.40;;
43801;SDS011;29429;51.074;13.764;2023-05-13T09:15:17;4.65;;;2.10;;
43801;SDS011;29429;51.074;13.764;2023-05-13T09:17:50;4.32;;;2.38;;
43801;SDS011;29429;51.074;13.764;2023-05-13T09:20:27;4.13;;;2.38;;
43801;SDS011;29429;51.074;13.764;2023-05-13T09:25:31;3.08;;;2.20;;
43801;SDS011;29429;51.074;13.764;2023-05-13T09:28:00;3.35;;;2.47;;
43801;SDS011;29429;51.074;13.764;2023-05-13T09:33:07;3.67;;;2.08;;
43801;SDS011;29429;51.074;13.764;2023-05-13T09:35:35;4.13;;;2.30;;
43801;SDS011;29429;51.074;13.764;2023-05-13T09:38:15;2.85;;;2.20;;
43801;SDS011;29429;51.074;13.764;2023-05-13T09:43:22;3.40;;;2.10;;
43801;SDS011;29429;51.074;13.764;2023-05-13T09:45:58;3.20;;;2.03;;
43801;SDS011;29429;51.074;13.764;2023-05-13T09:48:31;2.40;;;1.85;;
43801;SDS011;29429;51.074;13.764;2023-05-13T09:51:00;3.97;;;2.45;;
43801;SDS011;29429;51.074;13.764;2023-05-13T09:53:27;3.78;;;2.20;;
43801;SDS011;29429;51.074;13.764;2023-05-13T09:55:56;4.35;;;2.25;;
43801;SDS011;29429;51.074;13.764;2023-05-13T09:58:26;2.03;;;1.83;;
43801;SDS011;29429;51.074;13.764;2023-05-13T10:00:56;3.10;;;2.00;;
43801;SDS011;29429;51.074;13.764;2023-05-13T10:03:24;2.33;;;2.00;;
43801;SDS011;29429;51.074;13.764;2023-05-13T10:05:53;2.33;;;2.05;;
43801;SDS011;29429;51.074;13.764;2023-05-13T10:08:24;3.75;;;2.38;;
43801;SDS011;29429;51.074;13.764;2023-05-13T10:10:53;6.30;;;2.22;;
43801;SDS011;29429;51.074;13.764;2023-05-13T10:13:22;4.38;;;2.13;;
43801;SDS011;29429;51.074;13.764;2023-05-13T10:18:20;3.20;;;1.98;;
43801;SDS011;29429;51.074;13.764;2023-05-13T10:20:54;4.13;;;2.15;;
43801;SDS011;29429;51.074;13.764;2023-05-13T10:23:22;3.47;;;2.30;;
43801;SDS011;29429;51.074;13.764;2023-05-13T10:25:50;3.45;;;2.55;;
43801;SDS011;29429;51.074;13.764;2023-05-13T10:28:20;2.72;;;2.15;;
43801;SDS011;29429;51.074;13.764;2023-05-13T10:30:48;3.38;;;2.00;;
43801;SDS011;29429;51.074;13.764;2023-05-13T10:33:19;3.60;;;2.55;;
43801;SDS011;29429;51.074;13.764;2023-05-13T10:45:06;3.08;;;2.47;;
43801;SDS011;29429;51.074;13.764;2023-05-13T10:47:35;2.30;;;2.00;;
43801;SDS011;29429;51.074;13.764;2023-05-13T10:50:20;3.53;;;2.28;;
43801;SDS011;29429;51.074;13.764;2023-05-13T10:52:55;3.75;;;2.38;;
43801;SDS011;29429;51.074;13.764;2023-05-13T10:55:25;2.97;;;2.13;;
43801;SDS011;29429;51.074;13.764;2023-05-13T11:00:32;3.40;;;2.15;;
43801;SDS011;29429;51.074;13.764;2023-05-13T11:03:08;3.03;;;2.30;;
43801;SDS011;29429;51.074;13.764;2023-05-13T11:05:45;2.75;;;2.10;;
43801;SDS011;29429;51.074;13.764;2023-05-13T11:08:35;4.28;;;2.50;;
43801;SDS011;29429;51.074;13.764;2023-05-13T11:13:50;3.40;;;2.17;;
43801;SDS011;29429;51.074;13.764;2023-05-13T11:16:20;2.65;;;2.35;;
43801;SDS011;29429;51.074;13.764;2023-05-13T11:18:51;3.38;;;3.00;;
43801;SDS011;29429;51.074;13.764;2023-05-13T11:21:30;3.00;;;2.42;;
43801;SDS011;29429;51.074;13.764;2023-05-13T11:24:02;4.72;;;2.65;;
43801;SDS011;29429;51.074;13.764;2023-05-13T11:26:45;4.38;;;2.47;;
43801;SDS011;29429;51.074;13.764;2023-05-13T11:29:18;2.65;;;2.13;;
43801;SDS011;29429;51.074;13.764;2023-05-13T11:31:54;4.00;;;2.28;;
43801;SDS011;29429;51.074;13.764;2023-05-13T11:34:25;6.22;;;3.00;;
43801;SDS011;29429;51.074;13.764;2023-05-13T11:39:29;5.88;;;2.67;;
43801;SDS011;29429;51.074;13.764;2023-05-13T11:41:59;2.38;;;2.17;;
43801;SDS011;29429;51.074;13.764;2023-05-13T11:44:32;3.67;;;2.30;;
43801;SDS011;29429;51.074;13.764;2023-05-13T11:47:03;3.63;;;2.42;;
43801;SDS011;29429;51.074;13.764;2023-05-13T11:49:45;3.75;;;2.33;;
43801;SDS011;29429;51.074;13.764;2023-05-13T11:52:16;3.35;;;2.08;;
43801;SDS011;29429;51.074;13.764;2023-05-13T11:57:25;3.05;;;2.08;;
43801;SDS011;29429;51.074;13.764;2023-05-13T12:00:06;2.35;;;1.88;;
43801;SDS011;29429;51.074;13.764;2023-05-13T12:02:36;2.47;;;1.88;;
43801;SDS011;29429;51.074;13.764;2023-05-13T12:05:10;2.40;;;1.80;;
43801;SDS011;29429;51.074;13.764;2023-05-13T12:07:37;3.67;;;1.77;;
43801;SDS011;29429;51.074;13.764;2023-05-13T12:10:05;2.20;;;1.33;;
43801;SDS011;29429;51.074;13.764;2023-05-13T12:12:34;3.78;;;2.00;;
43801;SDS011;29429;51.074;13.764;2023-05-13T12:15:06;3.22;;;1.63;;
43801;SDS011;29429;51.074;13.764;2023-05-13T12:17:37;2.53;;;1.85;;
43801;SDS011;29429;51.074;13.764;2023-05-13T12:20:11;3.90;;;1.83;;
43801;SDS011;29429;51.074;13.764;2023-05-13T12:30:51;2.30;;;2.10;;
43801;SDS011;29429;51.074;13.764;2023-05-13T12:33:40;3.80;;;1.60;;
43801;SDS011;29429;51.074;13.764;2023-05-13T12:41:37;1.85;;;1.40;;
43801;SDS011;29429;51.074;13.764;2023-05-13T12:44:17;2.90;;;1.40;;
43801;SDS011;29429;51.074;13.764;2023-05-13T12:46:50;3.33;;;1.85;;
43801;SDS011;29429;51.074;13.764;2023-05-13T12:49:26;2.00;;;1.42;;
43801;SDS011;29429;51.074;13.764;2023-05-13T12:51:53;1.40;;;1.30;;
43801;SDS011;29429;51.074;13.764;2023-05-13T12:54:21;2.05;;;1.40;;
43801;SDS011;29429;51.074;13.764;2023-05-13T12:56:48;2.17;;;1.60;;
43801;SDS011;29429;51.074;13.764;2023-05-13T12:59:15;3.40;;;1.55;;
43801;SDS011;29429;51.074;13.764;2023-05-13T13:01:44;1.70;;;1.48;;
43801;SDS011;29429;51.074;13.764;2023-05-13T13:04:13;2.08;;;1.40;;
43801;SDS011;29429;51.074;13.764;2023-05-13T13:06:42;1.50;;;1.40;;
43801;SDS011;29429;51.074;13.764;2023-05-13T13:09:09;3.45;;;1.70;;
43801;SDS011;29429;51.074;13.764;2023-05-13T13:11:36;1.67;;;1.40;;
43801;SDS011;29429;51.074;13.764;2023-05-13T13:14:04;2.63;;;1.58;;
43801;SDS011;29429;51.074;13.764;2023-05-13T13:16:31;4.60;;;1.75;;
43801;SDS011;29429;51.074;13.764;2023-05-13T13:18:58;3.15;;;1.77;;
43801;SDS011;29429;51.074;13.764;2023-05-13T13:21:27;2.15;;;1.52;;
43801;SDS011;29429;51.074;13.764;2023-05-13T13:23:54;2.67;;;1.63;;
43801;SDS011;29429;51.074;13.764;2023-05-13T13:26:21;3.22;;;1.55;;
43801;SDS011;29429;51.074;13.764;2023-05-13T13:28:48;2.05;;;1.73;;
43801;SDS011;29429;51.074;13.764;2023-05-13T13:31:15;3.40;;;1.70;;
43801;SDS011;29429;51.074;13.764;2023-05-13T13:33:42;1.98;;;1.75;;
43801;SDS011;29429;51.074;13.764;2023-05-13T13:36:09;2.05;;;1.70;;
43801;SDS011;29429;51.074;13.764;2023-05-13T13:38:36;3.10;;;2.10;;
43801;SDS011;29429;51.074;13.764;2023-05-13T13:41:03;2.47;;;1.80;;
43801;SDS011;29429;51.074;13.764;2023-05-13T13:43:31;3.05;;;1.83;;
43801;SDS011;29429;51.074;13.764;2023-05-13T13:45:58;3.75;;;1.90;;
43801;SDS011;29429;51.074;13.764;2023-05-13T13:48:25;2.13;;;1.75;;
43801;SDS011;29429;51.074;13.764;2023-05-13T13:50:52;1.85;;;1.63;;
43801;SDS011;29429;51.074;13.764;2023-05-13T13:53:20;2.50;;;1.50;;
43801;SDS011;29429;51.074;13.764;2023-05-13T13:55:47;2.05;;;1.55;;
43801;SDS011;29429;51.074;13.764;2023-05-13T13:58:14;2.30;;;1.83;;
43801;SDS011;29429;51.074;13.764;2023-05-13T14:00:41;2.58;;;1.50;;
43801;SDS011;29429;51.074;13.764;2023-05-13T14:03:08;1.95;;;1.63;;
43801;SDS011;29429;51.074;13.764;2023-05-13T14:05:35;4.45;;;1.70;;
43801;SDS011;29429;51.074;13.764;2023-05-13T14:08:02;2.00;;;1.60;;
43801;SDS011;29429;51.074;13.764;2023-05-13T14:10:29;2.15;;;1.70;;
43801;SDS011;29429;51.074;13.764;2023-05-13T14:12:57;2.88;;;1.92;;
43801;SDS011;29429;51.074;13.764;2023-05-13T14:15:23;2.58;;;1.70;;
43801;SDS011;29429;51.074;13.764;2023-05-13T14:17:53;2.70;;;1.73;;
43801;SDS011;29429;51.074;13.764;2023-05-13T14:20:21;2.65;;;1.98;;
43801;SDS011;29429;51.074;13.764;2023-05-13T14:22:50;3.35;;;2.00;;
43801;SDS011;29429;51.074;13.764;2023-05-13T14:25:17;2.75;;;1.80;;
43801;SDS011;29429;51.074;13.764;2023-05-13T14:27:44;2.78;;;1.70;;
43801;SDS011;29429;51.074;13.764;2023-05-13T14:30:11;2.45;;;1.70;;
43801;SDS011;29429;51.074;13.764;2023-05-13T14:32:39;2.70;;;1.60;;
43801;SDS011;29429;51.074;13.764;2023-05-13T14:35:10;2.70;;;1.83;;
43801;SDS011;29429;51.074;13.764;2023-05-13T14:37:39;3.15;;;2.05;;
43801;SDS011;29429;51.074;13.764;2023-05-13T14:40:07;2.45;;;1.77;;
43801;SDS011;29429;51.074;13.764;2023-05-13T14:42:34;2.90;;;2.03;;
43801;SDS011;29429;51.074;13.764;2023-05-13T14:45:01;3.40;;;2.00;;
43801;SDS011;29429;51.074;13.764;2023-05-13T14:47:29;3.25;;;1.92;;
43801;SDS011;29429;51.074;13.764;2023-05-13T14:49:56;3.53;;;2.20;;
43801;SDS011;29429;51.074;13.764;2023-05-13T14:52:24;2.30;;;2.00;;
43801;SDS011;29429;51.074;13.764;2023-05-13T14:54:51;3.55;;;2.28;;
43801;SDS011;29429;51.074;13.764;2023-05-13T14:57:19;4.68;;;2.03;;
43801;SDS011;29429;51.074;13.764;2023-05-13T14:59:46;2.65;;;1.85;;
43801;SDS011;29429;51.074;13.764;2023-05-13T15:02:13;2.22;;;1.70;;
43801;SDS011;29429;51.074;13.764;2023-05-13T15:04:42;3.70;;;2.15;;
43801;SDS011;29429;51.074;13.764;2023-05-13T15:07:09;3.13;;;2.00;;
43801;SDS011;29429;51.074;13.764;2023-05-13T15:09:36;2.92;;;1.90;;
43801;SDS011;29429;51.074;13.764;2023-05-13T15:12:03;3.00;;;2.08;;
43801;SDS011;29429;51.074;13.764;2023-05-13T15:14:32;3.67;;;1.90;;
43801;SDS011;29429;51.074;13.764;2023-05-13T15:16:59;2.67;;;1.77;;
43801;SDS011;29429;51.074;13.764;2023-05-13T15:19:27;1.95;;;1.80;;
43801;SDS011;29429;51.074;13.764;2023-05-13T15:21:54;2.15;;;1.80;;
43801;SDS011;29429;51.074;13.764;2023-05-13T15:24:21;3.17;;;2.17;;
43801;SDS011;29429;51.074;13.764;2023-05-13T15:26:48;5.78;;;2.65;;
43801;SDS011;29429;51.074;13.764;2023-05-13T15:29:16;3.35;;;2.20;;
43801;SDS011;29429;51.074;13.764;2023-05-13T15:31:43;3.35;;;2.20;;
43801;SDS011;29429;51.074;13.764;2023-05-13T15:34:10;4.63;;;2.20;;
43801;SDS011;29429;51.074;13.764;2023-05-13T15:36:37;2.63;;;1.63;;
43801;SDS011;29429;51.074;13.764;2023-05-13T15:39:04;2.65;;;2.10;;
43801;SDS011;29429;51.074;13.764;2023-05-13T15:41:31;3.03;;;2.33;;